<?xml version="1.0" encoding="UTF-8" ?>
<gpx version="1.1" xmlns:xsi="http://www.w3.org/2001/XMLSchema-instance" 
    xmlns="http://www.topografix.com/GPX/1/1" 
    xsi:schemaLocation="http://www.topografix.com/GPX/1/1 http://www.topografix.com/GPX/1/1/gpx.xsd" 
    creator="Openrunner - https://www.openrunner.com" >	<trk>
						<name>12990864-Les Marais du Vigueirat</name>
						<trkseg>
					<trkpt lat="43.558550" lon="4.726750">
						<ele>2</ele>
						<time>2021-05-04T07:59:41Z</time>
					</trkpt>
					<trkpt lat="43.558360" lon="4.726690">
						<ele>2</ele>
						<time>2021-05-04T08:00:07Z</time>
					</trkpt>
					<trkpt lat="43.558200" lon="4.726590">
						<ele>2</ele>
						<time>2021-05-04T08:00:30Z</time>
					</trkpt>
					<trkpt lat="43.557550" lon="4.727100">
						<ele>2</ele>
						<time>2021-05-04T08:02:10Z</time>
					</trkpt>
					<trkpt lat="43.556150" lon="4.728400">
						<ele>3</ele>
						<time>2021-05-04T08:05:55Z</time>
					</trkpt>
					<trkpt lat="43.556050" lon="4.728520">
						<ele>2</ele>
						<time>2021-05-04T08:06:13Z</time>
					</trkpt>
					<trkpt lat="43.556010" lon="4.728530">
						<ele>2</ele>
						<time>2021-05-04T08:06:19Z</time>
					</trkpt>
					<trkpt lat="43.555590" lon="4.728900">
						<ele>1</ele>
						<time>2021-05-04T08:07:25Z</time>
					</trkpt>
					<trkpt lat="43.555410" lon="4.729030">
						<ele>2</ele>
						<time>2021-05-04T08:07:52Z</time>
					</trkpt>
					<trkpt lat="43.554960" lon="4.729500">
						<ele>2</ele>
						<time>2021-05-04T08:09:07Z</time>
					</trkpt>
					<trkpt lat="43.554590" lon="4.729810">
						<ele>3</ele>
						<time>2021-05-04T08:10:05Z</time>
					</trkpt>
					<trkpt lat="43.554460" lon="4.729860">
						<ele>3</ele>
						<time>2021-05-04T08:10:23Z</time>
					</trkpt>
					<trkpt lat="43.554450" lon="4.729830">
						<ele>3</ele>
						<time>2021-05-04T08:10:26Z</time>
					</trkpt>
					<trkpt lat="43.554380" lon="4.730060">
						<ele>3</ele>
						<time>2021-05-04T08:10:51Z</time>
					</trkpt>
					<trkpt lat="43.554270" lon="4.730310">
						<ele>3</ele>
						<time>2021-05-04T08:11:19Z</time>
					</trkpt>
					<trkpt lat="43.553820" lon="4.730550">
						<ele>3</ele>
						<time>2021-05-04T08:12:23Z</time>
					</trkpt>
					<trkpt lat="43.553250" lon="4.731100">
						<ele>3</ele>
						<time>2021-05-04T08:13:56Z</time>
					</trkpt>
					<trkpt lat="43.553100" lon="4.731210">
						<ele>2</ele>
						<time>2021-05-04T08:14:19Z</time>
					</trkpt>
					<trkpt lat="43.552670" lon="4.731630">
						<ele>1</ele>
						<time>2021-05-04T08:15:29Z</time>
					</trkpt>
					<trkpt lat="43.552480" lon="4.731780">
						<ele>1</ele>
						<time>2021-05-04T08:15:58Z</time>
					</trkpt>
					<trkpt lat="43.551670" lon="4.732530">
						<ele>1</ele>
						<time>2021-05-04T08:18:08Z</time>
					</trkpt>
					<trkpt lat="43.550950" lon="4.733240">
						<ele>1</ele>
						<time>2021-05-04T08:20:06Z</time>
					</trkpt>
					<trkpt lat="43.550120" lon="4.734010">
						<ele>1</ele>
						<time>2021-05-04T08:22:20Z</time>
					</trkpt>
					<trkpt lat="43.548950" lon="4.734970">
						<ele>2</ele>
						<time>2021-05-04T08:25:22Z</time>
					</trkpt>
					<trkpt lat="43.548650" lon="4.735280">
						<ele>1</ele>
						<time>2021-05-04T08:26:12Z</time>
					</trkpt>
					<trkpt lat="43.548520" lon="4.735470">
						<ele>1</ele>
						<time>2021-05-04T08:26:37Z</time>
					</trkpt>
					<trkpt lat="43.547930" lon="4.736030">
						<ele>1</ele>
						<time>2021-05-04T08:28:12Z</time>
					</trkpt>
					<trkpt lat="43.547140" lon="4.736720">
						<ele>0</ele>
						<time>2021-05-04T08:30:17Z</time>
					</trkpt>
					<trkpt lat="43.546770" lon="4.737120">
						<ele>0</ele>
						<time>2021-05-04T08:31:20Z</time>
					</trkpt>
					<trkpt lat="43.546050" lon="4.737820">
						<ele>0</ele>
						<time>2021-05-04T08:33:18Z</time>
					</trkpt>
					<trkpt lat="43.545520" lon="4.738260">
						<ele>1</ele>
						<time>2021-05-04T08:34:40Z</time>
					</trkpt>
					<trkpt lat="43.543780" lon="4.739870">
						<ele>1</ele>
						<time>2021-05-04T08:39:20Z</time>
					</trkpt>
					<trkpt lat="43.542700" lon="4.740940">
						<ele>1</ele>
						<time>2021-05-04T08:42:17Z</time>
					</trkpt>
					<trkpt lat="43.541670" lon="4.741870">
						<ele>1</ele>
						<time>2021-05-04T08:45:01Z</time>
					</trkpt>
					<trkpt lat="43.541390" lon="4.742200">
						<ele>1</ele>
						<time>2021-05-04T08:45:50Z</time>
					</trkpt>
					<trkpt lat="43.541370" lon="4.742180">
						<ele>1</ele>
						<time>2021-05-04T08:45:54Z</time>
					</trkpt>
					<trkpt lat="43.541410" lon="4.742160">
						<ele>1</ele>
						<time>2021-05-04T08:45:59Z</time>
					</trkpt>
					<trkpt lat="43.540930" lon="4.742600">
						<ele>1</ele>
						<time>2021-05-04T08:47:16Z</time>
					</trkpt>
					<trkpt lat="43.539680" lon="4.743660">
						<ele>2</ele>
						<time>2021-05-04T08:50:32Z</time>
					</trkpt>
					<trkpt lat="43.539630" lon="4.743670">
						<ele>2</ele>
						<time>2021-05-04T08:50:39Z</time>
					</trkpt>
					<trkpt lat="43.539540" lon="4.743540">
						<ele>1</ele>
						<time>2021-05-04T08:50:56Z</time>
					</trkpt>
					<trkpt lat="43.539480" lon="4.743630">
						<ele>1</ele>
						<time>2021-05-04T08:51:08Z</time>
					</trkpt>
					<trkpt lat="43.539570" lon="4.743840">
						<ele>2</ele>
						<time>2021-05-04T08:51:32Z</time>
					</trkpt>
					<trkpt lat="43.539620" lon="4.743900">
						<ele>1</ele>
						<time>2021-05-04T08:51:41Z</time>
					</trkpt>
					<trkpt lat="43.539600" lon="4.743910">
						<ele>1</ele>
						<time>2021-05-04T08:51:43Z</time>
					</trkpt>
					<trkpt lat="43.539500" lon="4.743710">
						<ele>1</ele>
						<time>2021-05-04T08:52:07Z</time>
					</trkpt>
					<trkpt lat="43.539510" lon="4.743670">
						<ele>1</ele>
						<time>2021-05-04T08:52:11Z</time>
					</trkpt>
					<trkpt lat="43.539530" lon="4.743730">
						<ele>1</ele>
						<time>2021-05-04T08:52:17Z</time>
					</trkpt>
					<trkpt lat="43.539590" lon="4.743710">
						<ele>2</ele>
						<time>2021-05-04T08:52:26Z</time>
					</trkpt>
					<trkpt lat="43.539570" lon="4.743870">
						<ele>2</ele>
						<time>2021-05-04T08:52:41Z</time>
					</trkpt>
					<trkpt lat="43.539540" lon="4.743820">
						<ele>2</ele>
						<time>2021-05-04T08:52:48Z</time>
					</trkpt>
					<trkpt lat="43.539380" lon="4.743910">
						<ele>2</ele>
						<time>2021-05-04T08:53:11Z</time>
					</trkpt>
					<trkpt lat="43.538800" lon="4.744380">
						<ele>1</ele>
						<time>2021-05-04T08:54:40Z</time>
					</trkpt>
					<trkpt lat="43.538410" lon="4.744730">
						<ele>1</ele>
						<time>2021-05-04T08:55:43Z</time>
					</trkpt>
					<trkpt lat="43.537600" lon="4.745550">
						<ele>2</ele>
						<time>2021-05-04T08:57:57Z</time>
					</trkpt>
					<trkpt lat="43.537440" lon="4.745740">
						<ele>2</ele>
						<time>2021-05-04T08:58:25Z</time>
					</trkpt>
					<trkpt lat="43.537270" lon="4.745870">
						<ele>1</ele>
						<time>2021-05-04T08:58:51Z</time>
					</trkpt>
					<trkpt lat="43.537140" lon="4.745930">
						<ele>1</ele>
						<time>2021-05-04T08:59:09Z</time>
					</trkpt>
					<trkpt lat="43.536990" lon="4.746120">
						<ele>1</ele>
						<time>2021-05-04T08:59:36Z</time>
					</trkpt>
					<trkpt lat="43.536950" lon="4.746550">
						<ele>2</ele>
						<time>2021-05-04T09:00:18Z</time>
					</trkpt>
					<trkpt lat="43.536900" lon="4.746630">
						<ele>2</ele>
						<time>2021-05-04T09:00:28Z</time>
					</trkpt>
					<trkpt lat="43.536720" lon="4.746770">
						<ele>2</ele>
						<time>2021-05-04T09:00:56Z</time>
					</trkpt>
					<trkpt lat="43.536520" lon="4.746970">
						<ele>1</ele>
						<time>2021-05-04T09:01:29Z</time>
					</trkpt>
					<trkpt lat="43.536450" lon="4.747070">
						<ele>1</ele>
						<time>2021-05-04T09:01:42Z</time>
					</trkpt>
					<trkpt lat="43.536350" lon="4.747360">
						<ele>0</ele>
						<time>2021-05-04T09:02:13Z</time>
					</trkpt>
					<trkpt lat="43.535700" lon="4.752350">
						<ele>0</ele>
						<time>2021-05-04T09:10:24Z</time>
					</trkpt>
					<trkpt lat="43.535760" lon="4.752680">
						<ele>0</ele>
						<time>2021-05-04T09:10:57Z</time>
					</trkpt>
					<trkpt lat="43.535890" lon="4.752940">
						<ele>0</ele>
						<time>2021-05-04T09:11:27Z</time>
					</trkpt>
					<trkpt lat="43.535990" lon="4.753060">
						<ele>0</ele>
						<time>2021-05-04T09:11:45Z</time>
					</trkpt>
					<trkpt lat="43.536040" lon="4.753170">
						<ele>0</ele>
						<time>2021-05-04T09:11:58Z</time>
					</trkpt>
					<trkpt lat="43.536080" lon="4.753350">
						<ele>0</ele>
						<time>2021-05-04T09:12:16Z</time>
					</trkpt>
					<trkpt lat="43.536120" lon="4.753350">
						<ele>0</ele>
						<time>2021-05-04T09:12:21Z</time>
					</trkpt>
					<trkpt lat="43.536100" lon="4.753350">
						<ele>0</ele>
						<time>2021-05-04T09:12:24Z</time>
					</trkpt>
					<trkpt lat="43.536110" lon="4.753330">
						<ele>0</ele>
						<time>2021-05-04T09:12:26Z</time>
					</trkpt>
					<trkpt lat="43.536090" lon="4.753380">
						<ele>0</ele>
						<time>2021-05-04T09:12:32Z</time>
					</trkpt>
					<trkpt lat="43.536070" lon="4.753350">
						<ele>0</ele>
						<time>2021-05-04T09:12:36Z</time>
					</trkpt>
					<trkpt lat="43.536120" lon="4.753340">
						<ele>0</ele>
						<time>2021-05-04T09:12:42Z</time>
					</trkpt>
					<trkpt lat="43.536130" lon="4.753360">
						<ele>0</ele>
						<time>2021-05-04T09:12:45Z</time>
					</trkpt>
					<trkpt lat="43.536100" lon="4.753350">
						<ele>0</ele>
						<time>2021-05-04T09:12:49Z</time>
					</trkpt>
					<trkpt lat="43.536070" lon="4.753390">
						<ele>0</ele>
						<time>2021-05-04T09:12:54Z</time>
					</trkpt>
					<trkpt lat="43.536110" lon="4.753400">
						<ele>0</ele>
						<time>2021-05-04T09:13:00Z</time>
					</trkpt>
					<trkpt lat="43.536100" lon="4.753340">
						<ele>0</ele>
						<time>2021-05-04T09:13:06Z</time>
					</trkpt>
					<trkpt lat="43.535970" lon="4.753040">
						<ele>0</ele>
						<time>2021-05-04T09:13:40Z</time>
					</trkpt>
					<trkpt lat="43.536130" lon="4.753400">
						<ele>0</ele>
						<time>2021-05-04T09:14:20Z</time>
					</trkpt>
					<trkpt lat="43.536170" lon="4.753420">
						<ele>0</ele>
						<time>2021-05-04T09:14:26Z</time>
					</trkpt>
					<trkpt lat="43.536160" lon="4.753480">
						<ele>0</ele>
						<time>2021-05-04T09:14:32Z</time>
					</trkpt>
					<trkpt lat="43.536080" lon="4.753510">
						<ele>0</ele>
						<time>2021-05-04T09:14:43Z</time>
					</trkpt>
					<trkpt lat="43.536110" lon="4.753510">
						<ele>0</ele>
						<time>2021-05-04T09:14:47Z</time>
					</trkpt>
					<trkpt lat="43.536090" lon="4.753530">
						<ele>0</ele>
						<time>2021-05-04T09:14:50Z</time>
					</trkpt>
					<trkpt lat="43.536110" lon="4.753520">
						<ele>0</ele>
						<time>2021-05-04T09:14:53Z</time>
					</trkpt>
					<trkpt lat="43.536120" lon="4.753480">
						<ele>0</ele>
						<time>2021-05-04T09:14:57Z</time>
					</trkpt>
					<trkpt lat="43.536100" lon="4.753550">
						<ele>0</ele>
						<time>2021-05-04T09:15:05Z</time>
					</trkpt>
					<trkpt lat="43.536200" lon="4.753400">
						<ele>0</ele>
						<time>2021-05-04T09:15:24Z</time>
					</trkpt>
					<trkpt lat="43.536220" lon="4.753440">
						<ele>0</ele>
						<time>2021-05-04T09:15:29Z</time>
					</trkpt>
					<trkpt lat="43.536230" lon="4.753410">
						<ele>0</ele>
						<time>2021-05-04T09:15:32Z</time>
					</trkpt>
					<trkpt lat="43.536320" lon="4.753420">
						<ele>0</ele>
						<time>2021-05-04T09:15:44Z</time>
					</trkpt>
					<trkpt lat="43.536350" lon="4.753480">
						<ele>0</ele>
						<time>2021-05-04T09:15:51Z</time>
					</trkpt>
					<trkpt lat="43.536330" lon="4.753480">
						<ele>0</ele>
						<time>2021-05-04T09:15:54Z</time>
					</trkpt>
					<trkpt lat="43.536340" lon="4.753440">
						<ele>0</ele>
						<time>2021-05-04T09:15:58Z</time>
					</trkpt>
					<trkpt lat="43.536360" lon="4.753470">
						<ele>0</ele>
						<time>2021-05-04T09:16:02Z</time>
					</trkpt>
					<trkpt lat="43.536400" lon="4.753440">
						<ele>0</ele>
						<time>2021-05-04T09:16:08Z</time>
					</trkpt>
					<trkpt lat="43.536480" lon="4.753370">
						<ele>0</ele>
						<time>2021-05-04T09:16:21Z</time>
					</trkpt>
					<trkpt lat="43.536560" lon="4.753250">
						<ele>0</ele>
						<time>2021-05-04T09:16:37Z</time>
					</trkpt>
					<trkpt lat="43.536670" lon="4.753160">
						<ele>0</ele>
						<time>2021-05-04T09:16:54Z</time>
					</trkpt>
					<trkpt lat="43.536660" lon="4.752970">
						<ele>0</ele>
						<time>2021-05-04T09:17:12Z</time>
					</trkpt>
					<trkpt lat="43.536550" lon="4.752690">
						<ele>0</ele>
						<time>2021-05-04T09:17:43Z</time>
					</trkpt>
					<trkpt lat="43.536460" lon="4.752560">
						<ele>0</ele>
						<time>2021-05-04T09:18:00Z</time>
					</trkpt>
					<trkpt lat="43.536410" lon="4.752430">
						<ele>0</ele>
						<time>2021-05-04T09:18:14Z</time>
					</trkpt>
					<trkpt lat="43.536420" lon="4.752380">
						<ele>0</ele>
						<time>2021-05-04T09:18:20Z</time>
					</trkpt>
					<trkpt lat="43.536390" lon="4.752270">
						<ele>0</ele>
						<time>2021-05-04T09:18:31Z</time>
					</trkpt>
					<trkpt lat="43.536470" lon="4.752010">
						<ele>1</ele>
						<time>2021-05-04T09:18:58Z</time>
					</trkpt>
					<trkpt lat="43.536440" lon="4.751870">
						<ele>1</ele>
						<time>2021-05-04T09:19:12Z</time>
					</trkpt>
					<trkpt lat="43.536470" lon="4.751690">
						<ele>1</ele>
						<time>2021-05-04T09:19:30Z</time>
					</trkpt>
					<trkpt lat="43.536530" lon="4.751570">
						<ele>1</ele>
						<time>2021-05-04T09:19:44Z</time>
					</trkpt>
					<trkpt lat="43.536470" lon="4.751440">
						<ele>1</ele>
						<time>2021-05-04T09:19:59Z</time>
					</trkpt>
					<trkpt lat="43.536250" lon="4.751290">
						<ele>1</ele>
						<time>2021-05-04T09:20:32Z</time>
					</trkpt>
					<trkpt lat="43.536280" lon="4.751230">
						<ele>0</ele>
						<time>2021-05-04T09:20:39Z</time>
					</trkpt>
					<trkpt lat="43.536230" lon="4.751270">
						<ele>0</ele>
						<time>2021-05-04T09:20:47Z</time>
					</trkpt>
					<trkpt lat="43.536320" lon="4.751210">
						<ele>0</ele>
						<time>2021-05-04T09:21:00Z</time>
					</trkpt>
					<trkpt lat="43.536450" lon="4.751010">
						<ele>0</ele>
						<time>2021-05-04T09:21:26Z</time>
					</trkpt>
					<trkpt lat="43.536630" lon="4.750910">
						<ele>0</ele>
						<time>2021-05-04T09:21:52Z</time>
					</trkpt>
					<trkpt lat="43.536680" lon="4.750920">
						<ele>1</ele>
						<time>2021-05-04T09:21:59Z</time>
					</trkpt>
					<trkpt lat="43.536730" lon="4.751130">
						<ele>1</ele>
						<time>2021-05-04T09:22:20Z</time>
					</trkpt>
					<trkpt lat="43.536730" lon="4.750970">
						<ele>1</ele>
						<time>2021-05-04T09:22:36Z</time>
					</trkpt>
					<trkpt lat="43.536620" lon="4.750850">
						<ele>0</ele>
						<time>2021-05-04T09:22:54Z</time>
					</trkpt>
					<trkpt lat="43.536640" lon="4.750760">
						<ele>1</ele>
						<time>2021-05-04T09:23:03Z</time>
					</trkpt>
					<trkpt lat="43.536630" lon="4.750870">
						<ele>0</ele>
						<time>2021-05-04T09:23:14Z</time>
					</trkpt>
					<trkpt lat="43.536730" lon="4.751000">
						<ele>1</ele>
						<time>2021-05-04T09:23:32Z</time>
					</trkpt>
					<trkpt lat="43.536720" lon="4.751230">
						<ele>1</ele>
						<time>2021-05-04T09:23:55Z</time>
					</trkpt>
					<trkpt lat="43.536770" lon="4.751420">
						<ele>1</ele>
						<time>2021-05-04T09:24:14Z</time>
					</trkpt>
					<trkpt lat="43.536770" lon="4.751950">
						<ele>1</ele>
						<time>2021-05-04T09:25:06Z</time>
					</trkpt>
					<trkpt lat="43.536710" lon="4.752190">
						<ele>1</ele>
						<time>2021-05-04T09:25:30Z</time>
					</trkpt>
					<trkpt lat="43.536610" lon="4.752340">
						<ele>0</ele>
						<time>2021-05-04T09:25:50Z</time>
					</trkpt>
					<trkpt lat="43.536560" lon="4.752720">
						<ele>0</ele>
						<time>2021-05-04T09:26:27Z</time>
					</trkpt>
					<trkpt lat="43.536620" lon="4.752910">
						<ele>0</ele>
						<time>2021-05-04T09:26:47Z</time>
					</trkpt>
					<trkpt lat="43.536570" lon="4.753170">
						<ele>0</ele>
						<time>2021-05-04T09:27:13Z</time>
					</trkpt>
					<trkpt lat="43.536640" lon="4.753290">
						<ele>0</ele>
						<time>2021-05-04T09:27:28Z</time>
					</trkpt>
					<trkpt lat="43.536600" lon="4.753650">
						<ele>0</ele>
						<time>2021-05-04T09:28:03Z</time>
					</trkpt>
					<trkpt lat="43.536600" lon="4.754510">
						<ele>1</ele>
						<time>2021-05-04T09:29:27Z</time>
					</trkpt>
					<trkpt lat="43.536640" lon="4.754720">
						<ele>1</ele>
						<time>2021-05-04T09:29:48Z</time>
					</trkpt>
					<trkpt lat="43.536620" lon="4.755210">
						<ele>1</ele>
						<time>2021-05-04T09:30:35Z</time>
					</trkpt>
					<trkpt lat="43.536680" lon="4.755400">
						<ele>1</ele>
						<time>2021-05-04T09:30:55Z</time>
					</trkpt>
					<trkpt lat="43.536860" lon="4.755380">
						<ele>1</ele>
						<time>2021-05-04T09:31:19Z</time>
					</trkpt>
					<trkpt lat="43.536950" lon="4.755280">
						<ele>1</ele>
						<time>2021-05-04T09:31:35Z</time>
					</trkpt>
					<trkpt lat="43.537020" lon="4.755290">
						<ele>1</ele>
						<time>2021-05-04T09:31:44Z</time>
					</trkpt>
					<trkpt lat="43.537110" lon="4.755360">
						<ele>1</ele>
						<time>2021-05-04T09:31:58Z</time>
					</trkpt>
					<trkpt lat="43.537120" lon="4.755240">
						<ele>1</ele>
						<time>2021-05-04T09:32:09Z</time>
					</trkpt>
					<trkpt lat="43.537070" lon="4.755120">
						<ele>1</ele>
						<time>2021-05-04T09:32:23Z</time>
					</trkpt>
					<trkpt lat="43.536830" lon="4.754960">
						<ele>1</ele>
						<time>2021-05-04T09:32:58Z</time>
					</trkpt>
					<trkpt lat="43.536790" lon="4.754660">
						<ele>1</ele>
						<time>2021-05-04T09:33:28Z</time>
					</trkpt>
					<trkpt lat="43.536770" lon="4.754050">
						<ele>1</ele>
						<time>2021-05-04T09:34:27Z</time>
					</trkpt>
					<trkpt lat="43.536900" lon="4.754000">
						<ele>1</ele>
						<time>2021-05-04T09:34:45Z</time>
					</trkpt>
					<trkpt lat="43.536940" lon="4.754070">
						<ele>1</ele>
						<time>2021-05-04T09:34:54Z</time>
					</trkpt>
					<trkpt lat="43.536930" lon="4.754370">
						<ele>1</ele>
						<time>2021-05-04T09:35:23Z</time>
					</trkpt>
					<trkpt lat="43.536960" lon="4.754420">
						<ele>1</ele>
						<time>2021-05-04T09:35:29Z</time>
					</trkpt>
					<trkpt lat="43.537120" lon="4.754380">
						<ele>1</ele>
						<time>2021-05-04T09:35:51Z</time>
					</trkpt>
					<trkpt lat="43.537130" lon="4.754450">
						<ele>1</ele>
						<time>2021-05-04T09:35:58Z</time>
					</trkpt>
					<trkpt lat="43.537050" lon="4.754410">
						<ele>1</ele>
						<time>2021-05-04T09:36:09Z</time>
					</trkpt>
					<trkpt lat="43.536990" lon="4.754460">
						<ele>1</ele>
						<time>2021-05-04T09:36:18Z</time>
					</trkpt>
					<trkpt lat="43.536990" lon="4.754530">
						<ele>1</ele>
						<time>2021-05-04T09:36:25Z</time>
					</trkpt>
					<trkpt lat="43.537280" lon="4.754890">
						<ele>0</ele>
						<time>2021-05-04T09:37:17Z</time>
					</trkpt>
					<trkpt lat="43.537320" lon="4.754980">
						<ele>0</ele>
						<time>2021-05-04T09:37:27Z</time>
					</trkpt>
					<trkpt lat="43.537490" lon="4.755160">
						<ele>0</ele>
						<time>2021-05-04T09:37:56Z</time>
					</trkpt>
					<trkpt lat="43.537540" lon="4.755310">
						<ele>0</ele>
						<time>2021-05-04T09:38:12Z</time>
					</trkpt>
					<trkpt lat="43.537620" lon="4.755450">
						<ele>1</ele>
						<time>2021-05-04T09:38:29Z</time>
					</trkpt>
					<trkpt lat="43.537760" lon="4.755570">
						<ele>1</ele>
						<time>2021-05-04T09:38:51Z</time>
					</trkpt>
					<trkpt lat="43.537910" lon="4.755440">
						<ele>1</ele>
						<time>2021-05-04T09:39:15Z</time>
					</trkpt>
					<trkpt lat="43.538050" lon="4.755260">
						<ele>0</ele>
						<time>2021-05-04T09:39:40Z</time>
					</trkpt>
					<trkpt lat="43.538290" lon="4.755050">
						<ele>0</ele>
						<time>2021-05-04T09:40:18Z</time>
					</trkpt>
					<trkpt lat="43.538440" lon="4.754830">
						<ele>0</ele>
						<time>2021-05-04T09:40:47Z</time>
					</trkpt>
					<trkpt lat="43.538630" lon="4.754670">
						<ele>0</ele>
						<time>2021-05-04T09:41:17Z</time>
					</trkpt>
					<trkpt lat="43.538990" lon="4.754160">
						<ele>0</ele>
						<time>2021-05-04T09:42:26Z</time>
					</trkpt>
					<trkpt lat="43.539040" lon="4.754050">
						<ele>0</ele>
						<time>2021-05-04T09:42:39Z</time>
					</trkpt>
					<trkpt lat="43.539230" lon="4.753810">
						<ele>0</ele>
						<time>2021-05-04T09:43:13Z</time>
					</trkpt>
					<trkpt lat="43.539250" lon="4.753720">
						<ele>0</ele>
						<time>2021-05-04T09:43:22Z</time>
					</trkpt>
					<trkpt lat="43.539270" lon="4.753730">
						<ele>0</ele>
						<time>2021-05-04T09:43:25Z</time>
					</trkpt>
					<trkpt lat="43.539340" lon="4.753640">
						<ele>0</ele>
						<time>2021-05-04T09:43:38Z</time>
					</trkpt>
					<trkpt lat="43.539430" lon="4.753480">
						<ele>0</ele>
						<time>2021-05-04T09:43:57Z</time>
					</trkpt>
					<trkpt lat="43.539370" lon="4.753330">
						<ele>0</ele>
						<time>2021-05-04T09:44:14Z</time>
					</trkpt>
					<trkpt lat="43.539360" lon="4.753180">
						<ele>0</ele>
						<time>2021-05-04T09:44:28Z</time>
					</trkpt>
					<trkpt lat="43.539430" lon="4.753020">
						<ele>0</ele>
						<time>2021-05-04T09:44:47Z</time>
					</trkpt>
					<trkpt lat="43.539510" lon="4.752930">
						<ele>0</ele>
						<time>2021-05-04T09:45:00Z</time>
					</trkpt>
					<trkpt lat="43.539510" lon="4.752900">
						<ele>0</ele>
						<time>2021-05-04T09:45:03Z</time>
					</trkpt>
					<trkpt lat="43.539480" lon="4.752890">
						<ele>0</ele>
						<time>2021-05-04T09:45:07Z</time>
					</trkpt>
					<trkpt lat="43.539500" lon="4.752880">
						<ele>0</ele>
						<time>2021-05-04T09:45:10Z</time>
					</trkpt>
					<trkpt lat="43.539500" lon="4.752920">
						<ele>0</ele>
						<time>2021-05-04T09:45:14Z</time>
					</trkpt>
					<trkpt lat="43.539520" lon="4.752900">
						<ele>0</ele>
						<time>2021-05-04T09:45:17Z</time>
					</trkpt>
					<trkpt lat="43.539590" lon="4.753000">
						<ele>0</ele>
						<time>2021-05-04T09:45:31Z</time>
					</trkpt>
					<trkpt lat="43.539650" lon="4.753200">
						<ele>0</ele>
						<time>2021-05-04T09:45:52Z</time>
					</trkpt>
					<trkpt lat="43.539790" lon="4.753380">
						<ele>0</ele>
						<time>2021-05-04T09:46:17Z</time>
					</trkpt>
					<trkpt lat="43.539960" lon="4.753410">
						<ele>0</ele>
						<time>2021-05-04T09:46:40Z</time>
					</trkpt>
					<trkpt lat="43.540060" lon="4.753330">
						<ele>1</ele>
						<time>2021-05-04T09:46:56Z</time>
					</trkpt>
					<trkpt lat="43.540400" lon="4.752800">
						<ele>1</ele>
						<time>2021-05-04T09:48:04Z</time>
					</trkpt>
					<trkpt lat="43.540710" lon="4.752230">
						<ele>1</ele>
						<time>2021-05-04T09:49:13Z</time>
					</trkpt>
					<trkpt lat="43.541610" lon="4.750720">
						<ele>1</ele>
						<time>2021-05-04T09:52:22Z</time>
					</trkpt>
					<trkpt lat="43.542140" lon="4.749700">
						<ele>1</ele>
						<time>2021-05-04T09:54:23Z</time>
					</trkpt>
					<trkpt lat="43.542710" lon="4.748850">
						<ele>3</ele>
						<time>2021-05-04T09:56:15Z</time>
					</trkpt>
					<trkpt lat="43.543270" lon="4.748070">
						<ele>3</ele>
						<time>2021-05-04T09:58:02Z</time>
					</trkpt>
					<trkpt lat="43.543500" lon="4.747850">
						<ele>3</ele>
						<time>2021-05-04T09:58:39Z</time>
					</trkpt>
					<trkpt lat="43.543440" lon="4.747680">
						<ele>2</ele>
						<time>2021-05-04T09:58:57Z</time>
					</trkpt>
					<trkpt lat="43.543320" lon="4.747530">
						<ele>2</ele>
						<time>2021-05-04T09:59:19Z</time>
					</trkpt>
					<trkpt lat="43.542980" lon="4.747390">
						<ele>1</ele>
						<time>2021-05-04T10:00:06Z</time>
					</trkpt>
					<trkpt lat="43.542740" lon="4.747380">
						<ele>1</ele>
						<time>2021-05-04T10:00:38Z</time>
					</trkpt>
					<trkpt lat="43.542610" lon="4.747210">
						<ele>1</ele>
						<time>2021-05-04T10:01:02Z</time>
					</trkpt>
					<trkpt lat="43.542550" lon="4.747180">
						<ele>1</ele>
						<time>2021-05-04T10:01:11Z</time>
					</trkpt>
					<trkpt lat="43.542320" lon="4.747140">
						<ele>0</ele>
						<time>2021-05-04T10:01:42Z</time>
					</trkpt>
					<trkpt lat="43.542240" lon="4.747080">
						<ele>0</ele>
						<time>2021-05-04T10:01:54Z</time>
					</trkpt>
					<trkpt lat="43.542190" lon="4.746990">
						<ele>0</ele>
						<time>2021-05-04T10:02:05Z</time>
					</trkpt>
					<trkpt lat="43.542130" lon="4.746740">
						<ele>0</ele>
						<time>2021-05-04T10:02:30Z</time>
					</trkpt>
					<trkpt lat="43.541720" lon="4.746270">
						<ele>0</ele>
						<time>2021-05-04T10:03:41Z</time>
					</trkpt>
					<trkpt lat="43.541620" lon="4.745780">
						<ele>1</ele>
						<time>2021-05-04T10:04:31Z</time>
					</trkpt>
					<trkpt lat="43.541520" lon="4.745510">
						<ele>1</ele>
						<time>2021-05-04T10:05:00Z</time>
					</trkpt>
					<trkpt lat="43.541550" lon="4.745160">
						<ele>1</ele>
						<time>2021-05-04T10:05:34Z</time>
					</trkpt>
					<trkpt lat="43.541530" lon="4.744910">
						<ele>1</ele>
						<time>2021-05-04T10:05:58Z</time>
					</trkpt>
					<trkpt lat="43.541500" lon="4.744860">
						<ele>1</ele>
						<time>2021-05-04T10:06:05Z</time>
					</trkpt>
					<trkpt lat="43.541340" lon="4.744920">
						<ele>1</ele>
						<time>2021-05-04T10:06:27Z</time>
					</trkpt>
					<trkpt lat="43.540160" lon="4.746000">
						<ele>1</ele>
						<time>2021-05-04T10:09:36Z</time>
					</trkpt>
					<trkpt lat="43.540000" lon="4.746040">
						<ele>1</ele>
						<time>2021-05-04T10:09:57Z</time>
					</trkpt>
					<trkpt lat="43.539930" lon="4.745950">
						<ele>1</ele>
						<time>2021-05-04T10:10:10Z</time>
					</trkpt>
					<trkpt lat="43.539730" lon="4.746110">
						<ele>1</ele>
						<time>2021-05-04T10:10:41Z</time>
					</trkpt>
					<trkpt lat="43.539360" lon="4.746470">
						<ele>1</ele>
						<time>2021-05-04T10:11:41Z</time>
					</trkpt>
					<trkpt lat="43.539200" lon="4.746570">
						<ele>1</ele>
						<time>2021-05-04T10:12:05Z</time>
					</trkpt>
					<trkpt lat="43.539050" lon="4.746740">
						<ele>0</ele>
						<time>2021-05-04T10:12:31Z</time>
					</trkpt>
					<trkpt lat="43.538700" lon="4.746940">
						<ele>0</ele>
						<time>2021-05-04T10:13:21Z</time>
					</trkpt>
					<trkpt lat="43.538600" lon="4.747180">
						<ele>0</ele>
						<time>2021-05-04T10:13:48Z</time>
					</trkpt>
					<trkpt lat="43.538300" lon="4.747480">
						<ele>0</ele>
						<time>2021-05-04T10:14:38Z</time>
					</trkpt>
					<trkpt lat="43.538260" lon="4.747670">
						<ele>0</ele>
						<time>2021-05-04T10:14:57Z</time>
					</trkpt>
					<trkpt lat="43.538310" lon="4.747910">
						<ele>0</ele>
						<time>2021-05-04T10:15:21Z</time>
					</trkpt>
					<trkpt lat="43.538290" lon="4.748160">
						<ele>0</ele>
						<time>2021-05-04T10:15:45Z</time>
					</trkpt>
					<trkpt lat="43.537620" lon="4.749580">
						<ele>0</ele>
						<time>2021-05-04T10:18:29Z</time>
					</trkpt>
					<trkpt lat="43.537660" lon="4.749770">
						<ele>0</ele>
						<time>2021-05-04T10:18:48Z</time>
					</trkpt>
					<trkpt lat="43.537770" lon="4.749950">
						<ele>0</ele>
						<time>2021-05-04T10:19:11Z</time>
					</trkpt>
					<trkpt lat="43.537820" lon="4.750080">
						<ele>0</ele>
						<time>2021-05-04T10:19:25Z</time>
					</trkpt>
					<trkpt lat="43.537800" lon="4.750100">
						<ele>0</ele>
						<time>2021-05-04T10:19:29Z</time>
					</trkpt>
					<trkpt lat="43.537820" lon="4.750110">
						<ele>0</ele>
						<time>2021-05-04T10:19:31Z</time>
					</trkpt>
					<trkpt lat="43.537800" lon="4.750070">
						<ele>0</ele>
						<time>2021-05-04T10:19:36Z</time>
					</trkpt>
					<trkpt lat="43.537730" lon="4.750250">
						<ele>0</ele>
						<time>2021-05-04T10:19:56Z</time>
					</trkpt>
					<trkpt lat="43.537960" lon="4.750740">
						<ele>0</ele>
						<time>2021-05-04T10:20:52Z</time>
					</trkpt>
					<trkpt lat="43.537920" lon="4.750840">
						<ele>0</ele>
						<time>2021-05-04T10:21:03Z</time>
					</trkpt>
					<trkpt lat="43.537900" lon="4.750880">
						<ele>0</ele>
						<time>2021-05-04T10:21:08Z</time>
					</trkpt>
					<trkpt lat="43.537860" lon="4.750780">
						<ele>0</ele>
						<time>2021-05-04T10:21:19Z</time>
					</trkpt>
					<trkpt lat="43.537640" lon="4.750840">
						<ele>0</ele>
						<time>2021-05-04T10:21:49Z</time>
					</trkpt>
					<trkpt lat="43.537280" lon="4.751120">
						<ele>1</ele>
						<time>2021-05-04T10:22:44Z</time>
					</trkpt>
					<trkpt lat="43.537120" lon="4.751370">
						<ele>1</ele>
						<time>2021-05-04T10:23:16Z</time>
					</trkpt>
					<trkpt lat="43.537020" lon="4.751680">
						<ele>1</ele>
						<time>2021-05-04T10:23:49Z</time>
					</trkpt>
					<trkpt lat="43.537010" lon="4.751770">
						<ele>1</ele>
						<time>2021-05-04T10:23:58Z</time>
					</trkpt>
					<trkpt lat="43.537040" lon="4.751810">
						<ele>1</ele>
						<time>2021-05-04T10:24:04Z</time>
					</trkpt>
					<trkpt lat="43.536990" lon="4.751830">
						<ele>1</ele>
						<time>2021-05-04T10:24:11Z</time>
					</trkpt>
					<trkpt lat="43.536920" lon="4.752180">
						<ele>1</ele>
						<time>2021-05-04T10:24:46Z</time>
					</trkpt>
					<trkpt lat="43.536880" lon="4.752560">
						<ele>0</ele>
						<time>2021-05-04T10:25:23Z</time>
					</trkpt>
					<trkpt lat="43.536870" lon="4.753080">
						<ele>0</ele>
						<time>2021-05-04T10:26:13Z</time>
					</trkpt>
					<trkpt lat="43.536830" lon="4.753260">
						<ele>0</ele>
						<time>2021-05-04T10:26:31Z</time>
					</trkpt>
					<trkpt lat="43.536850" lon="4.753350">
						<ele>0</ele>
						<time>2021-05-04T10:26:41Z</time>
					</trkpt>
					<trkpt lat="43.536830" lon="4.753290">
						<ele>0</ele>
						<time>2021-05-04T10:26:47Z</time>
					</trkpt>
					<trkpt lat="43.536470" lon="4.753200">
						<ele>0</ele>
						<time>2021-05-04T10:27:36Z</time>
					</trkpt>
					<trkpt lat="43.536440" lon="4.753330">
						<ele>0</ele>
						<time>2021-05-04T10:27:49Z</time>
					</trkpt>
					<trkpt lat="43.536090" lon="4.753340">
						<ele>0</ele>
						<time>2021-05-04T10:28:36Z</time>
					</trkpt>
					<trkpt lat="43.535940" lon="4.753370">
						<ele>0</ele>
						<time>2021-05-04T10:28:56Z</time>
					</trkpt>
					<trkpt lat="43.535830" lon="4.753350">
						<ele>0</ele>
						<time>2021-05-04T10:29:11Z</time>
					</trkpt>
					<trkpt lat="43.535730" lon="4.753270">
						<ele>0</ele>
						<time>2021-05-04T10:29:26Z</time>
					</trkpt>
					<trkpt lat="43.535870" lon="4.753390">
						<ele>0</ele>
						<time>2021-05-04T10:29:48Z</time>
					</trkpt>
					<trkpt lat="43.536020" lon="4.753270">
						<ele>0</ele>
						<time>2021-05-04T10:30:11Z</time>
					</trkpt>
					<trkpt lat="43.536010" lon="4.753110">
						<ele>0</ele>
						<time>2021-05-04T10:30:27Z</time>
					</trkpt>
					<trkpt lat="43.535900" lon="4.752950">
						<ele>0</ele>
						<time>2021-05-04T10:30:48Z</time>
					</trkpt>
					<trkpt lat="43.535900" lon="4.752830">
						<ele>0</ele>
						<time>2021-05-04T10:31:00Z</time>
					</trkpt>
					<trkpt lat="43.535720" lon="4.752580">
						<ele>0</ele>
						<time>2021-05-04T10:31:34Z</time>
					</trkpt>
					<trkpt lat="43.535720" lon="4.752300">
						<ele>0</ele>
						<time>2021-05-04T10:32:01Z</time>
					</trkpt>
					<trkpt lat="43.535780" lon="4.751690">
						<ele>0</ele>
						<time>2021-05-04T10:33:00Z</time>
					</trkpt>
					<trkpt lat="43.535870" lon="4.751190">
						<ele>1</ele>
						<time>2021-05-04T10:33:50Z</time>
					</trkpt>
					<trkpt lat="43.535840" lon="4.751000">
						<ele>1</ele>
						<time>2021-05-04T10:34:09Z</time>
					</trkpt>
					<trkpt lat="43.535890" lon="4.750750">
						<ele>1</ele>
						<time>2021-05-04T10:34:34Z</time>
					</trkpt>
					<trkpt lat="43.536050" lon="4.749470">
						<ele>2</ele>
						<time>2021-05-04T10:36:40Z</time>
					</trkpt>
					<trkpt lat="43.536130" lon="4.749120">
						<ele>2</ele>
						<time>2021-05-04T10:37:15Z</time>
					</trkpt>
					<trkpt lat="43.536370" lon="4.747360">
						<ele>0</ele>
						<time>2021-05-04T10:40:09Z</time>
					</trkpt>
					<trkpt lat="43.536500" lon="4.747030">
						<ele>1</ele>
						<time>2021-05-04T10:40:45Z</time>
					</trkpt>
					<trkpt lat="43.536820" lon="4.746740">
						<ele>2</ele>
						<time>2021-05-04T10:41:36Z</time>
					</trkpt>
					<trkpt lat="43.536970" lon="4.746550">
						<ele>2</ele>
						<time>2021-05-04T10:42:03Z</time>
					</trkpt>
					<trkpt lat="43.536950" lon="4.746290">
						<ele>1</ele>
						<time>2021-05-04T10:42:29Z</time>
					</trkpt>
					<trkpt lat="43.537100" lon="4.745980">
						<ele>1</ele>
						<time>2021-05-04T10:43:05Z</time>
					</trkpt>
					<trkpt lat="43.537290" lon="4.745870">
						<ele>1</ele>
						<time>2021-05-04T10:43:32Z</time>
					</trkpt>
					<trkpt lat="43.537470" lon="4.745720">
						<ele>2</ele>
						<time>2021-05-04T10:44:00Z</time>
					</trkpt>
					<trkpt lat="43.538330" lon="4.744840">
						<ele>1</ele>
						<time>2021-05-04T10:46:23Z</time>
					</trkpt>
					<trkpt lat="43.538790" lon="4.744410">
						<ele>1</ele>
						<time>2021-05-04T10:47:37Z</time>
					</trkpt>
					<trkpt lat="43.540530" lon="4.742940">
						<ele>1</ele>
						<time>2021-05-04T10:52:09Z</time>
					</trkpt>
					<trkpt lat="43.541340" lon="4.742210">
						<ele>1</ele>
						<time>2021-05-04T10:54:19Z</time>
					</trkpt>
					<trkpt lat="43.541870" lon="4.741680">
						<ele>1</ele>
						<time>2021-05-04T10:55:46Z</time>
					</trkpt>
					<trkpt lat="43.542430" lon="4.741200">
						<ele>1</ele>
						<time>2021-05-04T10:57:14Z</time>
					</trkpt>
					<trkpt lat="43.543730" lon="4.739890">
						<ele>1</ele>
						<time>2021-05-04T11:00:49Z</time>
					</trkpt>
					<trkpt lat="43.544570" lon="4.739160">
						<ele>2</ele>
						<time>2021-05-04T11:03:01Z</time>
					</trkpt>
					<trkpt lat="43.545490" lon="4.738280">
						<ele>1</ele>
						<time>2021-05-04T11:05:31Z</time>
					</trkpt>
					<trkpt lat="43.546610" lon="4.737300">
						<ele>0</ele>
						<time>2021-05-04T11:08:28Z</time>
					</trkpt>
					<trkpt lat="43.547150" lon="4.736730">
						<ele>0</ele>
						<time>2021-05-04T11:09:58Z</time>
					</trkpt>
					<trkpt lat="43.547920" lon="4.736050">
						<ele>1</ele>
						<time>2021-05-04T11:12:00Z</time>
					</trkpt>
					<trkpt lat="43.548120" lon="4.735830">
						<ele>1</ele>
						<time>2021-05-04T11:12:34Z</time>
					</trkpt>
					<trkpt lat="43.548540" lon="4.735450">
						<ele>1</ele>
						<time>2021-05-04T11:13:41Z</time>
					</trkpt>
					<trkpt lat="43.548710" lon="4.735200">
						<ele>2</ele>
						<time>2021-05-04T11:14:15Z</time>
					</trkpt>
					<trkpt lat="43.548870" lon="4.735040">
						<ele>2</ele>
						<time>2021-05-04T11:14:41Z</time>
					</trkpt>
					<trkpt lat="43.548970" lon="4.734990">
						<ele>3</ele>
						<time>2021-05-04T11:14:55Z</time>
					</trkpt>
					<trkpt lat="43.549040" lon="4.735000">
						<ele>3</ele>
						<time>2021-05-04T11:15:05Z</time>
					</trkpt>
					<trkpt lat="43.549130" lon="4.735310">
						<ele>2</ele>
						<time>2021-05-04T11:15:37Z</time>
					</trkpt>
					<trkpt lat="43.549140" lon="4.735190">
						<ele>2</ele>
						<time>2021-05-04T11:15:49Z</time>
					</trkpt>
					<trkpt lat="43.549120" lon="4.735090">
						<ele>3</ele>
						<time>2021-05-04T11:15:59Z</time>
					</trkpt>
					<trkpt lat="43.549060" lon="4.734970">
						<ele>3</ele>
						<time>2021-05-04T11:16:13Z</time>
					</trkpt>
					<trkpt lat="43.549070" lon="4.734910">
						<ele>3</ele>
						<time>2021-05-04T11:16:19Z</time>
					</trkpt>
					<trkpt lat="43.550910" lon="4.733280">
						<ele>1</ele>
						<time>2021-05-04T11:21:10Z</time>
					</trkpt>
					<trkpt lat="43.551460" lon="4.732710">
						<ele>1</ele>
						<time>2021-05-04T11:22:42Z</time>
					</trkpt>
					<trkpt lat="43.551880" lon="4.732320">
						<ele>1</ele>
						<time>2021-05-04T11:23:50Z</time>
					</trkpt>
					<trkpt lat="43.552430" lon="4.731860">
						<ele>1</ele>
						<time>2021-05-04T11:25:16Z</time>
					</trkpt>
					<trkpt lat="43.553840" lon="4.730520">
						<ele>3</ele>
						<time>2021-05-04T11:29:04Z</time>
					</trkpt>
					<trkpt lat="43.554300" lon="4.730280">
						<ele>3</ele>
						<time>2021-05-04T11:30:10Z</time>
					</trkpt>
					<trkpt lat="43.554520" lon="4.729870">
						<ele>3</ele>
						<time>2021-05-04T11:30:59Z</time>
					</trkpt>
					<trkpt lat="43.555770" lon="4.728720">
						<ele>2</ele>
						<time>2021-05-04T11:34:20Z</time>
					</trkpt>
					<trkpt lat="43.556330" lon="4.728270">
						<ele>3</ele>
						<time>2021-05-04T11:35:46Z</time>
					</trkpt>
					<trkpt lat="43.557070" lon="4.727560">
						<ele>3</ele>
						<time>2021-05-04T11:37:46Z</time>
					</trkpt>
					<trkpt lat="43.557620" lon="4.726970">
						<ele>2</ele>
						<time>2021-05-04T11:39:19Z</time>
					</trkpt>
					<trkpt lat="43.557640" lon="4.726980">
						<ele>2</ele>
						<time>2021-05-04T11:39:22Z</time>
					</trkpt>
					<trkpt lat="43.557740" lon="4.726930">
						<ele>2</ele>
						<time>2021-05-04T11:39:36Z</time>
					</trkpt>
					<trkpt lat="43.557970" lon="4.726780">
						<ele>2</ele>
						<time>2021-05-04T11:40:10Z</time>
					</trkpt>
					<trkpt lat="43.558220" lon="4.726570">
						<ele>2</ele>
						<time>2021-05-04T11:40:49Z</time>
					</trkpt>
					<trkpt lat="43.558280" lon="4.726640">
						<ele>2</ele>
						<time>2021-05-04T11:41:00Z</time>
					</trkpt>
					<trkpt lat="43.558400" lon="4.726720">
						<ele>2</ele>
						<time>2021-05-04T11:41:18Z</time>
					</trkpt>
					<trkpt lat="43.558420" lon="4.726760">
						<ele>2</ele>
						<time>2021-05-04T11:41:22Z</time>
					</trkpt>
					<trkpt lat="43.558530" lon="4.726750">
						<ele>2</ele>
						<time>2021-05-04T11:41:37Z</time>
					</trkpt>
					<trkpt lat="43.558540" lon="4.726860">
						<ele>2</ele>
						<time>2021-05-04T11:41:48Z</time>
					</trkpt>
					</trkseg>
				</trk>
			</gpx>